Time;durP1;ratioP1;P1;durP2;ratioP2;P2;SDS_P1;SDS_P2;PMS_P1;PMS_P2;Temp;Humidity;BMP_temperature;BMP_pressure;BME280_temperature;BME280_humidity;BME280_pressure;Samples;Min_cycle;Max_cycle;Signal;HPM_P1;HPM_P2
2023/03/01 00:02:24;;;;;;;;;5.00;5.00;;;;;20.22;50.88;102300.01;109608;1254;20823;-38
2023/03/01 00:04:52;;;;;;;;;5.00;4.00;;;;;20.21;50.76;102295.75;109594;1268;19619;-38
2023/03/01 00:07:19;;;;;;;;;5.00;5.00;;;;;20.21;50.86;102297.51;109591;1268;19580;-38
2023/03/01 00:09:47;;;;;;;;;7.00;5.00;;;;;20.21;50.78;102298.42;109633;1253;22059;-37
2023/03/01 00:12:14;;;;;;;;;4.00;4.00;;;;;20.21;50.84;102303.15;109618;1268;19835;-37
2023/03/01 00:14:42;;;;;;;;;4.00;4.00;;;;;20.21;50.64;102306.76;109606;1269;18773;-39
2023/03/01 00:17:09;;;;;;;;;5.00;5.00;;;;;20.22;50.82;102302.70;109618;1268;20676;-39
2023/03/01 00:19:37;;;;;;;;;4.00;4.00;;;;;20.22;50.72;102301.45;109638;1269;18414;-39
2023/03/01 00:22:04;;;;;;;;;7.00;5.00;;;;;20.21;50.64;102292.27;109605;1268;22159;-38
2023/03/01 00:24:31;;;;;;;;;5.00;5.00;;;;;20.21;50.81;102283.20;109586;1253;19326;-43
2023/03/01 00:26:59;;;;;;;;;4.00;4.00;;;;;20.20;50.55;102277.46;109614;1269;22326;-39
2023/03/01 00:29:26;;;;;;;;;5.00;5.00;;;;;20.21;50.66;102273.42;109619;1269;20000;-39
2023/03/01 00:31:54;;;;;;;;;4.00;4.00;;;;;20.22;50.61;102274.41;109596;1253;20830;-38
2023/03/01 00:34:21;;;;;;;;;7.00;5.00;;;;;20.21;50.77;102274.64;109638;1268;19822;-38
2023/03/01 00:36:48;;;;;;;;;5.50;4.00;;;;;20.22;50.68;102271.90;109604;1268;19939;-38
2023/03/01 00:39:16;;;;;;;;;7.00;5.00;;;;;20.20;50.55;102270.15;109609;1269;19549;-39
2023/03/01 00:41:44;;;;;;;;;4.00;4.00;;;;;20.20;50.48;102271.61;109614;1253;22636;-38
2023/03/01 00:44:11;;;;;;;;;5.00;5.00;;;;;20.20;50.68;102269.15;109577;1253;23135;-38
2023/03/01 00:46:39;;;;;;;;;7.00;5.00;;;;;20.20;50.64;102270.06;109612;1261;19362;-39
2023/03/01 00:49:06;;;;;;;;;4.00;4.00;;;;;20.19;50.71;102271.90;109572;1268;18429;-38
2023/03/01 00:51:34;;;;;;;;;5.00;4.00;;;;;20.20;50.56;102272.22;109587;1253;18838;-38
2023/03/01 00:54:01;;;;;;;;;4.50;4.50;;;;;20.20;50.54;102266.17;109617;1253;22686;-38
2023/03/01 00:56:29;;;;;;;;;4.33;4.33;;;;;20.20;50.47;102270.75;109644;1268;19607;-38
2023/03/01 00:58:56;;;;;;;;;5.00;5.00;;;;;20.20;50.78;102269.52;109542;1268;19975;-38
2023/03/01 01:01:24;;;;;;;;;5.50;5.50;;;;;20.20;50.48;102261.55;109520;1268;21138;-38
2023/03/01 01:03:51;;;;;;;;;5.00;5.00;;;;;20.19;50.64;102257.26;109600;1268;19632;-37
2023/03/01 01:06:19;;;;;;;;;4.00;2.50;;;;;20.19;50.54;102249.80;109530;1268;21264;-38
2023/03/01 01:08:46;;;;;;;;;5.00;4.00;;;;;20.19;50.56;102251.23;109602;1253;20805;-38
2023/03/01 01:11:14;;;;;;;;;5.00;4.00;;;;;20.19;50.38;102243.45;109600;1268;19617;-38
2023/03/01 01:13:41;;;;;;;;;4.50;4.00;;;;;20.19;50.54;102243.66;109616;1269;20693;-37
2023/03/01 01:16:08;;;;;;;;;2.00;2.00;;;;;20.19;50.53;102243.61;109592;1254;20781;-37
2023/03/01 01:18:36;;;;;;;;;4.00;4.00;;;;;20.18;50.46;102239.55;109537;1268;20596;-38
2023/03/01 01:21:03;;;;;;;;;5.00;4.00;;;;;20.19;50.39;102239.08;109651;1268;19911;-37
2023/03/01 01:23:31;;;;;;;;;5.00;5.00;;;;;20.19;50.49;102234.22;109680;1268;19374;-37
2023/03/01 01:25:58;;;;;;;;;6.00;5.00;;;;;20.20;50.47;102229.60;109673;1268;19628;-38
2023/03/01 01:28:25;;;;;;;;;4.00;4.00;;;;;20.19;50.40;102221.67;109634;1269;20355;-39
2023/03/01 01:30:53;;;;;;;;;5.00;5.00;;;;;20.18;50.31;102213.06;109556;1268;19769;-38
2023/03/01 01:33:20;;;;;;;;;5.00;4.00;;;;;20.18;50.33;102211.77;109586;1268;18246;-38
2023/03/01 01:35:48;;;;;;;;;5.00;5.00;;;;;20.18;50.31;102207.27;109600;1269;19982;-38
2023/03/01 01:38:15;;;;;;;;;4.00;4.00;;;;;20.18;50.38;102207.59;109584;1253;22009;-38
2023/03/01 01:40:42;;;;;;;;;4.00;4.00;;;;;20.18;50.57;102202.38;109569;1253;18384;-38
2023/03/01 01:43:10;;;;;;;;;5.00;4.00;;;;;20.17;50.36;102200.77;109572;1268;18699;-37
2023/03/01 01:45:37;;;;;;;;;7.00;6.00;;;;;20.17;50.32;102196.61;109613;1253;20757;-38
2023/03/01 01:48:05;;;;;;;;;5.00;2.00;;;;;20.18;50.58;102197.10;109522;1269;19701;-38
2023/03/01 01:50:37;;;;;;;;;7.00;5.00;;;;;20.17;50.31;102200.80;109695;1268;18614;-38
2023/03/01 01:53:04;;;;;;;;;4.00;4.00;;;;;20.17;50.27;102194.27;109623;1268;19379;-38
2023/03/01 01:55:32;;;;;;;;;4.00;4.00;;;;;20.16;50.46;102194.86;109582;1268;22913;-38
2023/03/01 01:57:59;;;;;;;;;5.00;4.50;;;;;20.17;50.41;102193.15;109611;1268;19968;-38
2023/03/01 02:00:27;;;;;;;;;4.00;4.00;;;;;20.16;50.40;102193.60;109577;1268;21844;-38
2023/03/01 02:02:54;;;;;;;;;4.00;4.00;;;;;20.16;50.45;102192.52;109594;1268;18465;-39
2023/03/01 02:05:22;;;;;;;;;;;;;;;20.17;50.33;102191.77;109597;1263;22327;-39
2023/03/01 02:07:49;;;;;;;;;4.00;4.00;;;;;20.16;50.41;102190.69;109606;1269;19210;-36
2023/03/01 02:10:17;;;;;;;;;4.00;4.00;;;;;20.16;50.03;102196.16;109692;1268;18424;-36
2023/03/01 02:12:44;;;;;;;;;5.00;5.00;;;;;20.16;50.35;102197.41;109659;1269;22904;-37
2023/03/01 02:15:12;;;;;;;;;4.00;4.00;;;;;20.16;50.26;102203.58;109682;1269;19551;-37
2023/03/01 02:17:39;;;;;;;;;4.00;4.00;;;;;20.16;50.23;102201.79;109683;1268;18444;-37
2023/03/01 02:20:06;;;;;;;;;4.00;4.00;;;;;20.15;50.17;102199.12;109661;1268;18700;-37
2023/03/01 02:22:34;;;;;;;;;4.00;4.00;;;;;20.16;50.22;102191.80;109610;1253;19354;-37
2023/03/01 02:25:02;;;;;;;;;4.00;4.00;;;;;20.16;50.32;102192.35;109605;1253;18442;-37
2023/03/01 02:27:29;;;;;;;;;4.00;4.00;;;;;20.15;50.16;102187.86;109590;1268;21715;-38
2023/03/01 02:29:57;;;;;;;;;2.00;2.00;;;;;20.16;50.17;102188.36;109534;1253;20780;-37
2023/03/01 02:32:24;;;;;;;;;4.00;4.00;;;;;20.15;50.04;102184.23;109589;1268;22858;-37
2023/03/01 02:34:52;;;;;;;;;4.00;2.00;;;;;20.15;50.29;102179.54;109592;1268;23046;-37
2023/03/01 02:37:24;;;;;;;;;3.00;3.00;;;;;20.15;50.13;102173.06;109583;1253;20791;-37
2023/03/01 02:39:51;;;;;;;;;4.00;4.00;;;;;20.15;50.21;102171.92;109595;1252;19486;-38
2023/03/01 02:42:19;;;;;;;;;4.00;4.00;;;;;20.15;50.26;102166.13;109595;1269;20156;-38
2023/03/01 02:44:46;;;;;;;;;4.00;4.00;;;;;20.15;50.15;102165.59;109605;1253;20722;-39
2023/03/01 02:47:14;;;;;;;;;5.00;5.00;;;;;20.16;50.05;102169.68;109578;1253;19601;-38
2023/03/01 02:49:41;;;;;;;;;5.00;5.00;;;;;20.15;50.10;102163.92;109584;1269;18646;-38
2023/03/01 02:52:08;;;;;;;;;4.00;4.00;;;;;20.15;50.16;102159.63;109571;1268;19395;-38
2023/03/01 02:54:36;;;;;;;;;4.00;4.00;;;;;20.14;49.92;102156.02;109579;1253;22736;-38
2023/03/01 02:57:03;;;;;;;;;4.00;4.00;;;;;20.14;50.23;102166.36;109603;1268;20033;-38
2023/03/01 02:59:31;;;;;;;;;4.00;4.00;;;;;20.14;50.23;102170.55;109611;1253;21959;-39
2023/03/01 03:01:58;;;;;;;;;4.00;4.00;;;;;20.14;50.18;102166.90;109607;1269;18426;-39
2023/03/01 03:04:26;;;;;;;;;5.00;5.00;;;;;20.14;50.06;102166.55;109606;1253;20037;-39
2023/03/01 03:06:53;;;;;;;;;4.00;3.00;;;;;20.14;50.18;102164.78;109568;1253;20796;-39
2023/03/01 03:09:21;;;;;;;;;4.00;4.00;;;;;20.14;50.24;102168.05;109595;1253;19961;-41
2023/03/01 03:11:48;;;;;;;;;7.00;4.00;;;;;20.13;50.18;102171.72;109597;1268;21883;-38
2023/03/01 03:14:15;;;;;;;;;4.33;4.33;;;;;20.14;49.94;102170.23;109574;1269;19374;-39
2023/03/01 03:16:43;;;;;;;;;4.00;2.00;;;;;20.13;49.93;102171.89;109607;1268;19762;-39
2023/03/01 03:19:10;;;;;;;;;4.00;4.00;;;;;20.13;50.09;102169.55;109570;1269;20120;-39
2023/03/01 03:21:38;;;;;;;;;4.00;4.00;;;;;20.13;49.98;102160.14;109588;1268;21887;-38
2023/03/01 03:24:06;;;;;;;;;4.00;4.00;;;;;20.12;49.86;102158.74;109586;1268;18543;-38
2023/03/01 03:26:33;;;;;;;;;4.00;4.00;;;;;20.12;50.12;102152.98;109597;1253;20164;-37
2023/03/01 03:29:01;;;;;;;;;5.00;5.00;;;;;20.12;49.90;102150.30;109591;1253;21316;-38
2023/03/01 03:31:28;;;;;;;;;3.00;3.00;;;;;20.12;49.92;102149.91;109605;1253;20428;-37
2023/03/01 03:33:55;;;;;;;;;4.00;4.00;;;;;20.12;50.01;102149.58;109614;1253;22876;-38
2023/03/01 03:36:23;;;;;;;;;6.67;6.00;;;;;20.11;50.19;102140.14;109602;1253;19319;-38
2023/03/01 03:38:50;;;;;;;;;3.00;3.00;;;;;20.12;49.99;102131.40;109660;1253;19622;-37
2023/03/01 03:41:18;;;;;;;;;4.00;4.00;;;;;20.12;50.05;102125.96;109695;1253;21581;-37
2023/03/01 03:43:45;;;;;;;;;3.00;3.00;;;;;20.11;49.88;102115.84;109687;1254;20946;-37
2023/03/01 03:46:12;;;;;;;;;4.50;4.00;;;;;20.11;50.00;102109.51;109612;1253;20972;-38
2023/03/01 03:48:40;;;;;;;;;3.00;3.00;;;;;20.11;50.02;102117.11;109637;1268;19898;-38
2023/03/01 03:51:07;;;;;;;;;5.00;4.00;;;;;20.12;49.88;102117.96;109599;1269;19383;-38
2023/03/01 03:53:35;;;;;;;;;4.00;3.50;;;;;20.11;49.79;102121.66;109610;1269;19933;-38
2023/03/01 03:56:02;;;;;;;;;5.00;4.00;;;;;20.11;49.90;102133.06;109621;1269;18824;-38
2023/03/01 03:58:30;;;;;;;;;4.00;4.00;;;;;20.12;49.80;102134.64;109589;1269;19392;-39
2023/03/01 04:00:57;;;;;;;;;6.00;5.00;;;;;20.12;50.03;102137.02;109561;1253;22780;-39
2023/03/01 04:03:25;;;;;;;;;4.00;4.00;;;;;20.12;49.90;102142.84;109594;1269;20399;-38
2023/03/01 04:05:52;;;;;;;;;6.00;6.00;;;;;20.11;49.76;102144.52;109607;1263;19384;-39
2023/03/01 04:08:21;;;;;;;;;4.00;4.00;;;;;20.10;50.07;102145.88;109599;1268;19882;-38
2023/03/01 04:10:48;;;;;;;;;4.00;4.00;;;;;20.11;49.83;102152.15;109593;1253;22581;-38
2023/03/01 04:13:16;;;;;;;;;6.00;6.00;;;;;20.11;49.94;102150.91;109672;1253;20994;-38
2023/03/01 04:15:44;;;;;;;;;4.00;4.00;;;;;20.10;49.81;102146.42;109596;1268;18529;-37
2023/03/01 04:18:11;;;;;;;;;4.00;4.00;;;;;20.11;49.79;102152.58;109604;1254;20329;-39
2023/03/01 04:20:38;;;;;;;;;4.00;4.00;;;;;20.10;49.75;102146.42;109607;1268;19370;-39
2023/03/01 04:23:12;;;;;;;;;5.00;4.00;;;;;20.10;49.87;102151.54;109575;1253;22230;-37
2023/03/01 04:25:40;;;;;;;;;4.00;3.00;;;;;20.10;49.87;102145.54;109612;1269;20032;-37
2023/03/01 04:28:08;;;;;;;;;4.00;4.00;;;;;20.10;49.81;102144.08;109575;1269;19400;-37
2023/03/01 04:30:36;;;;;;;;;4.00;4.00;;;;;20.10;49.87;102136.29;109591;1254;19689;-38
2023/03/01 04:33:04;;;;;;;;;6.00;4.00;;;;;20.10;49.73;102131.59;109543;1261;21740;-38
2023/03/01 04:35:31;;;;;;;;;4.00;4.00;;;;;20.09;49.86;102127.45;109604;1253;19386;-37
2023/03/01 04:37:59;;;;;;;;;4.00;4.00;;;;;20.09;50.04;102129.08;109589;1269;19989;-37
2023/03/01 04:40:26;;;;;;;;;5.00;5.00;;;;;20.10;49.94;102130.33;109545;1268;20056;-37
2023/03/01 04:42:54;;;;;;;;;6.00;6.00;;;;;20.09;49.86;102121.88;109697;1253;20847;-37
2023/03/01 04:45:21;;;;;;;;;6.00;6.00;;;;;20.09;49.68;102116.64;109606;1254;19639;-37
2023/03/01 04:47:48;;;;;;;;;4.00;4.00;;;;;20.09;49.74;102114.81;109605;1268;20431;-38
2023/03/01 04:50:16;;;;;;;;;3.50;3.50;;;;;20.08;49.93;102110.12;109580;1269;20967;-39
2023/03/01 04:52:43;;;;;;;;;2.00;2.00;;;;;20.09;49.74;102105.20;109593;1268;22316;-38
2023/03/01 04:55:11;;;;;;;;;4.00;4.00;;;;;20.09;49.80;102097.40;109589;1269;20227;-38
2023/03/01 04:57:38;;;;;;;;;4.00;4.00;;;;;20.08;49.79;102091.98;109589;1253;21111;-39
2023/03/01 05:00:19;;;;;;;;;2.00;2.00;;;;;20.09;49.75;102091.23;109586;1253;20317;-39
2023/03/01 05:02:48;;;;;;;;;4.00;4.00;;;;;20.09;49.71;102093.39;109563;1268;21992;-38
2023/03/01 05:05:15;;;;;;;;;6.00;6.00;;;;;20.08;49.73;102097.98;109579;1253;23296;-39
2023/03/01 05:07:43;;;;;;;;;4.00;4.00;;;;;20.08;49.71;102101.41;109611;1254;19748;-38
2023/03/01 05:10:10;;;;;;;;;7.00;4.00;;;;;20.08;49.66;102103.77;109586;1269;22927;-38
2023/03/01 05:12:38;;;;;;;;;6.00;6.00;;;;;20.08;49.69;102104.88;109586;1268;19370;-38
2023/03/01 05:15:06;;;;;;;;;4.00;4.00;;;;;20.08;49.86;102108.69;109603;1269;19559;-41
2023/03/01 05:17:34;;;;;;;;;4.00;4.00;;;;;20.08;49.66;102112.88;109614;1253;22170;-38
2023/03/01 05:20:06;;;;;;;;;5.50;4.00;;;;;20.07;49.85;102114.05;109604;1268;19335;-38
2023/03/01 05:22:33;;;;;;;;;6.00;4.00;;;;;20.08;49.75;102114.70;109634;1253;19678;-38
2023/03/01 05:25:01;;;;;;;;;4.00;4.00;;;;;20.08;49.81;102109.61;109583;1253;18665;-38
2023/03/01 05:27:29;;;;;;;;;6.00;6.00;;;;;20.08;49.73;102106.20;109632;1253;22209;-39
2023/03/01 05:29:56;;;;;;;;;6.00;3.00;;;;;20.07;49.65;102103.30;109589;1268;18418;-38
2023/03/01 05:32:24;;;;;;;;;4.00;4.00;;;;;20.07;49.70;102102.45;109618;1269;23174;-39
2023/03/01 05:34:52;;;;;;;;;4.00;4.00;;;;;20.07;49.89;102109.02;109585;1268;19383;-38
2023/03/01 05:37:19;;;;;;;;;4.00;4.00;;;;;20.06;49.69;102108.31;109628;1268;19606;-37
2023/03/01 05:39:50;;;;;;;;;6.50;6.00;;;;;20.07;49.69;102110.64;109607;1268;18685;-38
2023/03/01 05:42:18;;;;;;;;;4.00;4.00;;;;;20.06;49.97;102111.59;109281;1268;22685;-38
2023/03/01 05:44:45;;;;;;;;;4.00;4.00;;;;;20.06;49.80;102113.05;109595;1268;18473;-38
2023/03/01 05:47:13;;;;;;;;;5.00;4.00;;;;;20.06;49.89;102109.80;109596;1268;22027;-37
2023/03/01 05:49:40;;;;;;;;;4.00;4.00;;;;;20.06;49.71;102111.96;109612;1269;20598;-38
2023/03/01 05:52:07;;;;;;;;;4.00;4.00;;;;;20.06;49.72;102111.59;109602;1268;19613;-38
2023/03/01 05:54:35;;;;;;;;;5.00;4.00;;;;;20.06;49.84;102110.87;109575;1260;23425;-38
2023/03/01 05:57:03;;;;;;;;;6.50;5.00;;;;;20.06;49.85;102113.83;109597;1253;21481;-38
2023/03/01 05:59:30;;;;;;;;;4.00;4.00;;;;;20.05;49.80;102108.95;109508;1253;19959;-38
2023/03/01 06:01:57;;;;;;;;;6.00;4.00;;;;;20.06;49.92;102112.84;109557;1268;18649;-37
2023/03/01 06:04:25;;;;;;;;;4.00;4.00;;;;;20.05;49.82;102111.47;109614;1269;19377;-38
2023/03/01 06:06:52;;;;;;;;;3.00;3.00;;;;;20.04;49.77;102111.02;109559;1269;22897;-38
2023/03/01 06:09:20;;;;;;;;;4.00;3.00;;;;;20.06;49.68;102109.13;109603;1268;20002;-37
2023/03/01 06:11:47;;;;;;;;;7.00;7.00;;;;;20.05;49.74;102108.85;109636;1253;20861;-38
2023/03/01 06:14:15;;;;;;;;;3.00;3.00;;;;;20.04;49.74;102109.40;109597;1254;19627;-38
2023/03/01 06:16:42;;;;;;;;;8.00;6.00;;;;;20.06;49.91;102112.30;109604;1253;19960;-38
2023/03/01 06:19:10;;;;;;;;;6.00;6.00;;;;;20.08;49.82;102112.84;109585;1268;20757;-38
2023/03/01 06:21:37;;;;;;;;;6.00;4.00;;;;;20.09;50.15;102114.23;109621;1269;18716;-39
2023/03/01 06:24:07;;;;;;;;;6.00;6.00;;;;;20.08;50.13;102112.02;109611;1253;19924;-39
2023/03/01 06:26:34;;;;;;;;;9.00;4.00;;;;;20.08;50.05;102114.17;109607;1253;21310;-38
2023/03/01 06:29:02;;;;;;;;;7.00;7.00;;;;;20.07;50.04;102116.57;109583;1269;22359;-38
2023/03/01 06:31:29;;;;;;;;;7.00;7.00;;;;;20.09;50.15;102115.16;109583;1268;18789;-38
2023/03/01 06:33:56;;;;;;;;;5.00;5.00;;;;;20.11;50.14;102118.99;109635;1269;21047;-40
2023/03/01 06:36:24;;;;;;;;;5.00;5.00;;;;;20.12;50.21;102123.61;109637;1253;20770;-38
2023/03/01 06:38:51;;;;;;;;;6.00;6.00;;;;;20.13;50.47;102123.30;109587;1268;19754;-38
2023/03/01 06:41:19;;;;;;;;;9.00;9.00;;;;;20.14;50.61;102126.44;109598;1253;20777;-38
2023/03/01 06:43:46;;;;;;;;;7.00;7.00;;;;;20.15;50.57;102128.91;109590;1253;22194;-38
2023/03/01 06:46:13;;;;;;;;;11.50;11.00;;;;;20.15;50.48;102127.97;109578;1268;19982;-38
2023/03/01 06:48:41;;;;;;;;;65.00;52.00;;;;;20.19;50.72;102126.02;109560;1268;19555;-38
2023/03/01 06:51:08;;;;;;;;;103.50;80.50;;;;;20.21;51.03;102125.29;109550;1254;22313;-38
2023/03/01 06:53:36;;;;;;;;;121.00;103.00;;;;;20.19;51.58;102131.08;109587;1253;18808;-39
2023/03/01 06:56:03;;;;;;;;;99.00;76.00;;;;;20.17;52.34;102127.98;109611;1269;19379;-38
2023/03/01 06:58:31;;;;;;;;;85.00;65.00;;;;;20.16;52.47;102123.61;109556;1253;22211;-38
2023/03/01 07:00:58;;;;;;;;;68.00;56.00;;;;;20.21;52.30;102120.54;109571;1269;18734;-38
2023/03/01 07:03:26;;;;;;;;;67.00;49.50;;;;;20.26;52.31;102119.94;109586;1253;19619;-39
2023/03/01 07:05:53;;;;;;;;;53.00;47.00;;;;;20.29;52.21;102119.52;109606;1269;22204;-39
2023/03/01 07:08:20;;;;;;;;;50.00;44.00;;;;;20.29;52.45;102116.80;109575;1268;18730;-39
2023/03/01 07:10:48;;;;;;;;;43.00;37.00;;;;;20.27;52.31;102112.94;109522;1269;20938;-38
2023/03/01 07:13:15;;;;;;;;;43.50;37.50;;;;;20.30;52.52;102107.25;109605;1254;20110;-40
2023/03/01 07:15:43;;;;;;;;;29.00;28.00;;;;;20.33;52.22;102106.25;109593;1254;20629;-38
2023/03/01 07:18:10;;;;;;;;;39.00;34.00;;;;;20.39;52.47;102106.78;109592;1253;20791;-38
2023/03/01 07:20:38;;;;;;;;;28.50;26.50;;;;;20.42;52.21;102103.58;109492;1269;22700;-38
2023/03/01 07:23:05;;;;;;;;;32.00;28.00;;;;;20.43;51.77;102101.30;109645;1269;20208;-38
2023/03/01 07:25:32;;;;;;;;;35.00;27.00;;;;;20.45;51.81;102100.95;109567;1253;20813;-38
2023/03/01 07:28:00;;;;;;;;;30.00;26.00;;;;;20.46;51.57;102096.73;109623;1255;18598;-38
2023/03/01 07:30:28;;;;;;;;;24.00;23.00;;;;;20.47;50.87;102091.83;109545;1269;19922;-38
2023/03/01 07:32:55;;;;;;;;;22.00;20.00;;;;;20.50;50.83;102093.04;109585;1253;20820;-37
2023/03/01 07:35:23;;;;;;;;;24.00;20.00;;;;;20.51;51.09;102079.89;109560;1269;20264;-38
2023/03/01 07:37:50;;;;;;;;;20.50;19.50;;;;;20.55;50.96;102083.30;109603;1254;20278;-39
2023/03/01 07:40:18;;;;;;;;;19.00;17.00;;;;;20.58;50.79;102090.70;109584;1254;20821;-38
2023/03/01 07:42:45;;;;;;;;;20.50;19.50;;;;;20.61;51.00;102088.77;109598;1262;18645;-38
2023/03/01 07:45:13;;;;;;;;;20.00;17.00;;;;;20.62;50.74;102086.14;109589;1269;18711;-38
2023/03/01 07:47:40;;;;;;;;;21.00;18.00;;;;;20.63;50.95;102086.79;109631;1269;19360;-39
2023/03/01 07:50:08;;;;;;;;;20.50;18.00;;;;;20.65;50.45;102086.44;109575;1268;19984;-39
2023/03/01 07:52:35;;;;;;;;;19.00;16.00;;;;;20.70;50.60;102086.86;109586;1269;20206;-39
2023/03/01 07:55:03;;;;;;;;;16.00;14.00;;;;;20.74;50.46;102081.52;109578;1268;20907;-38
2023/03/01 07:57:31;;;;;;;;;15.00;14.00;;;;;20.77;50.55;102083.57;109591;1253;20111;-39
2023/03/01 07:59:58;;;;;;;;;17.00;16.00;;;;;20.80;50.50;102081.66;109608;1268;20048;-39
2023/03/01 08:02:26;;;;;;;;;13.50;13.50;;;;;20.83;50.51;102077.08;109603;1268;19568;-39
2023/03/01 08:04:53;;;;;;;;;14.00;14.00;;;;;20.85;50.61;102080.31;109487;1268;18612;-39
2023/03/01 08:07:21;;;;;;;;;17.67;17.00;;;;;20.85;50.96;102075.75;109953;1268;18814;-39
2023/03/01 08:09:48;;;;;;;;;16.00;14.00;;;;;20.85;50.92;102076.30;109967;1267;19341;-39
2023/03/01 08:12:16;;;;;;;;;14.00;13.00;;;;;20.86;51.08;102075.50;109999;1253;20057;-39
2023/03/01 08:14:44;;;;;;;;;17.00;15.00;;;;;20.88;51.35;102077.91;110009;1253;20244;-39
2023/03/01 08:17:11;;;;;;;;;10.50;10.50;;;;;20.88;51.29;102077.89;110020;1268;19250;-40
2023/03/01 08:19:39;;;;;;;;;11.00;10.00;;;;;20.89;51.29;102081.89;109986;1268;18771;-39
2023/03/01 08:22:06;;;;;;;;;17.00;13.00;;;;;20.88;51.45;102073.52;109976;1253;20150;-39
2023/03/01 08:24:33;;;;;;;;;13.00;11.00;;;;;20.88;51.56;102075.48;109935;1268;20910;-39
2023/03/01 08:27:02;;;;;;;;;14.00;11.00;;;;;20.90;51.49;102072.94;109890;1268;18692;-39
2023/03/01 08:29:30;;;;;;;;;12.00;11.00;;;;;20.95;51.49;102081.02;109884;1268;21681;-39
2023/03/01 08:31:57;;;;;;;;;14.50;13.00;;;;;20.99;51.31;102085.17;109928;1252;20983;-39
2023/03/01 08:34:24;;;;;;;;;14.00;12.00;;;;;21.02;51.01;102083.19;109908;1254;20070;-40
2023/03/01 08:36:52;;;;;;;;;10.00;10.00;;;;;21.06;51.24;102077.70;109888;1268;19378;-39
2023/03/01 08:39:20;;;;;;;;;10.00;10.00;;;;;21.07;51.20;102070.70;110073;1268;20710;-39
2023/03/01 08:41:47;;;;;;;;;15.00;13.00;;;;;21.11;51.26;102075.85;110054;1253;19921;-39
2023/03/01 08:44:16;;;;;;;;;10.00;10.00;;;;;21.12;51.32;102079.94;110028;1268;22265;-40
2023/03/01 08:46:44;;;;;;;;;10.50;10.00;;;;;21.14;51.29;102080.70;110025;1268;22772;-40
2023/03/01 08:49:12;;;;;;;;;10.00;9.00;;;;;21.15;50.97;102080.55;109977;1268;19954;-40
2023/03/01 08:51:39;;;;;;;;;7.50;7.00;;;;;21.18;50.78;102084.96;109966;1252;18814;-39
2023/03/01 08:54:06;;;;;;;;;10.50;10.50;;;;;21.24;50.82;102081.48;109988;1252;22208;-40
2023/03/01 08:56:34;;;;;;;;;8.00;8.00;;;;;21.29;50.68;102079.05;109961;1252;18524;-39
2023/03/01 08:59:01;;;;;;;;;8.00;7.00;;;;;21.31;50.70;102078.81;109934;1267;18978;-39
2023/03/01 09:01:29;;;;;;;;;8.00;8.00;;;;;21.33;50.62;102080.81;109811;1252;21483;-40
2023/03/01 09:03:56;;;;;;;;;7.00;7.00;;;;;21.34;50.67;102077.45;109983;1268;19764;-40
2023/03/01 09:06:24;;;;;;;;;8.00;7.00;;;;;21.31;50.87;102076.44;109997;1268;18645;-40
2023/03/01 09:08:51;;;;;;;;;10.00;8.00;;;;;21.32;50.87;102077.64;109825;1254;20829;-41
2023/03/01 09:11:19;;;;;;;;;10.00;8.00;;;;;21.35;50.90;102074.46;109964;1263;18469;-39
2023/03/01 09:13:46;;;;;;;;;11.00;9.00;;;;;21.40;51.18;102079.66;110000;1268;20047;-39
2023/03/01 09:16:14;;;;;;;;;10.00;10.00;;;;;21.42;51.35;102086.88;109857;1268;20872;-39
2023/03/01 09:18:41;;;;;;;;;7.00;7.00;;;;;21.43;51.57;102092.25;109945;1267;18596;-39
2023/03/01 09:21:09;;;;;;;;;13.00;11.50;;;;;21.44;51.52;102088.91;109952;1268;18999;-40
2023/03/01 09:23:38;;;;;;;;;10.00;10.00;;;;;21.43;51.48;102088.98;109953;1268;19385;-40
2023/03/01 09:26:06;;;;;;;;;12.00;12.00;;;;;21.37;50.69;102084.42;109958;1268;22293;-40
2023/03/01 09:28:33;;;;;;;;;14.00;12.00;;;;;21.30;49.09;102084.55;109981;1268;18815;-38
2023/03/01 09:31:01;;;;;;;;;28.00;24.00;;;;;21.19;47.90;102079.59;109914;1253;20708;-40
2023/03/01 09:33:29;;;;;;;;;21.00;18.00;;;;;21.11;45.68;102077.63;110048;1251;20075;-39
2023/03/01 09:35:56;;;;;;;;;17.50;16.00;;;;;20.90;43.56;102077.48;109981;1266;20068;-39
2023/03/01 09:38:24;;;;;;;;;17.00;15.00;;;;;20.83;43.38;102070.48;110006;1253;23403;-37
2023/03/01 09:40:51;;;;;;;;;16.00;14.50;;;;;20.84;43.78;102064.94;110014;1266;18624;-38
2023/03/01 09:43:18;;;;;;;;;20.00;15.00;;;;;20.88;43.60;102062.02;110031;1251;22120;-37
2023/03/01 09:45:46;;;;;;;;;15.00;14.00;;;;;20.91;44.06;102055.23;109994;1266;19415;-37
2023/03/01 09:48:13;;;;;;;;;13.00;13.00;;;;;20.94;44.41;102056.23;110014;1253;20003;-38
2023/03/01 09:50:41;;;;;;;;;13.50;13.00;;;;;20.94;45.17;102053.99;110053;1261;18671;-38
2023/03/01 09:53:08;;;;;;;;;14.33;13.00;;;;;20.96;45.64;102055.80;110014;1253;22707;-38
2023/03/01 09:55:35;;;;;;;;;14.00;11.00;;;;;20.97;45.99;102052.40;110041;1251;19959;-39
2023/03/01 09:58:03;;;;;;;;;13.00;10.00;;;;;20.96;46.44;102051.98;110041;1266;18591;-38
2023/03/01 10:00:31;;;;;;;;;10.00;8.00;;;;;20.95;46.76;102058.07;110039;1253;20739;-39
2023/03/01 10:02:59;;;;;;;;;8.67;8.00;;;;;20.93;46.84;102053.17;110014;1266;22562;-38
2023/03/01 10:05:27;;;;;;;;;10.50;9.00;;;;;20.93;47.26;102051.19;110058;1266;20254;-38
2023/03/01 10:07:54;;;;;;;;;10.00;10.00;;;;;20.92;47.53;102045.98;110028;1266;20933;-39
2023/03/01 10:10:21;;;;;;;;;14.00;10.00;;;;;20.93;47.54;102047.91;109888;1266;18632;-38
2023/03/01 10:12:49;;;;;;;;;13.00;10.00;;;;;20.93;47.68;102040.85;110071;1266;18768;-38
2023/03/01 10:15:16;;;;;;;;;7.00;7.00;;;;;20.94;47.68;102036.90;110073;1266;20688;-38
2023/03/01 10:17:44;;;;;;;;;8.00;8.00;;;;;20.96;47.74;102033.48;110067;1250;18596;-38
2023/03/01 10:20:11;;;;;;;;;10.00;7.00;;;;;20.97;47.94;102023.60;110042;1266;22171;-38
2023/03/01 10:22:38;;;;;;;;;14.00;11.00;;;;;20.97;47.97;102017.71;110039;1266;19379;-38
2023/03/01 10:25:06;;;;;;;;;10.00;8.00;;;;;20.98;47.89;102010.77;110015;1251;22966;-38
2023/03/01 10:27:33;;;;;;;;;13.00;10.50;;;;;20.97;48.03;102010.31;109963;1266;19999;-38
2023/03/01 10:30:01;;;;;;;;;11.00;11.00;;;;;20.97;47.99;102006.84;110005;1268;22354;-38
2023/03/01 10:32:28;;;;;;;;;10.00;10.00;;;;;20.96;48.30;102006.16;109988;1253;19993;-38
2023/03/01 10:34:56;;;;;;;;;10.00;10.00;;;;;20.96;48.27;102000.19;109988;1269;22172;-39
2023/03/01 10:37:25;;;;;;;;;10.00;10.00;;;;;20.96;48.23;102000.56;109995;1253;20789;-39
2023/03/01 10:39:53;;;;;;;;;11.00;10.00;;;;;20.95;48.34;101998.48;109998;1264;22180;-39
2023/03/01 10:42:20;;;;;;;;;10.00;10.00;;;;;20.95;48.47;101999.60;109959;1268;20056;-37
2023/03/01 10:44:48;;;;;;;;;10.50;10.50;;;;;20.95;48.27;101992.33;109937;1268;20636;-38
2023/03/01 10:47:15;;;;;;;;;11.00;10.00;;;;;20.95;48.45;101987.75;110032;1253;19992;-38
2023/03/01 10:49:42;;;;;;;;;9.00;8.00;;;;;20.95;48.37;101984.34;109942;1253;22710;-38
2023/03/01 10:52:10;;;;;;;;;10.00;9.00;;;;;20.94;48.17;101981.73;109844;1266;19577;-38
2023/03/01 10:54:37;;;;;;;;;11.00;10.00;;;;;20.94;48.44;101976.97;110005;1266;20171;-38
2023/03/01 10:57:05;;;;;;;;;11.00;11.00;;;;;20.95;48.36;101972.27;110006;1251;18683;-38
2023/03/01 10:59:32;;;;;;;;;8.00;8.00;;;;;20.95;48.48;101970.30;110013;1266;19427;-38
2023/03/01 11:01:59;;;;;;;;;8.00;8.00;;;;;20.94;48.46;101971.71;110021;1251;18551;-39
2023/03/01 11:04:27;;;;;;;;;10.00;10.00;;;;;20.91;48.27;101970.48;110026;1254;20034;-37
2023/03/01 11:06:54;;;;;;;;;8.00;7.50;;;;;20.91;48.49;101974.59;110023;1266;22848;-39
2023/03/01 11:09:22;;;;;;;;;10.00;8.00;;;;;20.89;48.49;101966.21;110031;1250;20042;-37
2023/03/01 11:11:49;;;;;;;;;7.50;7.50;;;;;20.88;48.53;101966.14;110000;1266;18571;-37
2023/03/01 11:14:17;;;;;;;;;8.00;7.50;;;;;20.86;48.57;101965.91;110027;1253;20952;-39